sensor_id;sensor_type;location;lat;lon;timestamp;P1;durP1;ratioP1;P2;durP2;ratioP2
13743;SDS011;6943;52.368;9.966;2023-02-26T00:01:30;5.93;;;1.70;;
13743;SDS011;6943;52.368;9.966;2023-02-26T00:03:57;3.07;;;1.47;;
13743;SDS011;6943;52.368;9.966;2023-02-26T00:06:25;2.57;;;1.23;;
13743;SDS011;6943;52.368;9.966;2023-02-26T00:08:51;4.17;;;1.63;;
13743;SDS011;6943;52.368;9.966;2023-02-26T00:11:18;2.90;;;1.30;;
13743;SDS011;6943;52.368;9.966;2023-02-26T00:13:44;2.63;;;1.37;;
13743;SDS011;6943;52.368;9.966;2023-02-26T00:16:17;2.43;;;1.07;;
13743;SDS011;6943;52.368;9.966;2023-02-26T00:18:52;1.60;;;1.10;;
13743;SDS011;6943;52.368;9.966;2023-02-26T00:21:19;3.43;;;1.40;;
13743;SDS011;6943;52.368;9.966;2023-02-26T00:23:46;3.37;;;1.57;;
13743;SDS011;6943;52.368;9.966;2023-02-26T00:26:11;1.83;;;1.30;;
13743;SDS011;6943;52.368;9.966;2023-02-26T00:28:37;2.80;;;1.30;;
13743;SDS011;6943;52.368;9.966;2023-02-26T00:31:03;1.60;;;1.10;;
13743;SDS011;6943;52.368;9.966;2023-02-26T00:33:29;4.93;;;1.60;;
13743;SDS011;6943;52.368;9.966;2023-02-26T00:35:56;2.13;;;1.07;;
13743;SDS011;6943;52.368;9.966;2023-02-26T00:38:38;5.83;;;1.37;;
13743;SDS011;6943;52.368;9.966;2023-02-26T00:41:07;2.80;;;1.40;;
13743;SDS011;6943;52.368;9.966;2023-02-26T00:43:32;5.83;;;1.33;;
13743;SDS011;6943;52.368;9.966;2023-02-26T00:46:01;1.50;;;1.20;;
13743;SDS011;6943;52.368;9.966;2023-02-26T00:48:44;4.90;;;1.30;;
13743;SDS011;6943;52.368;9.966;2023-02-26T00:51:26;4.30;;;1.40;;
13743;SDS011;6943;52.368;9.966;2023-02-26T00:56:40;1.80;;;1.10;;
13743;SDS011;6943;52.368;9.966;2023-02-26T00:59:05;2.53;;;1.37;;
13743;SDS011;6943;52.368;9.966;2023-02-26T01:01:31;4.10;;;1.90;;
13743;SDS011;6943;52.368;9.966;2023-02-26T01:03:57;5.03;;;1.50;;
13743;SDS011;6943;52.368;9.966;2023-02-26T01:06:23;4.23;;;1.50;;
13743;SDS011;6943;52.368;9.966;2023-02-26T01:09:10;1.70;;;1.03;;
13743;SDS011;6943;52.368;9.966;2023-02-26T01:11:48;3.20;;;1.20;;
13743;SDS011;6943;52.368;9.966;2023-02-26T01:14:14;4.63;;;1.93;;
13743;SDS011;6943;52.368;9.966;2023-02-26T01:16:43;2.93;;;1.50;;
13743;SDS011;6943;52.368;9.966;2023-02-26T01:21:43;6.10;;;2.00;;
13743;SDS011;6943;52.368;9.966;2023-02-26T01:24:14;5.10;;;1.90;;
13743;SDS011;6943;52.368;9.966;2023-02-26T01:26:42;5.77;;;1.80;;
13743;SDS011;6943;52.368;9.966;2023-02-26T01:29:07;3.67;;;1.40;;
13743;SDS011;6943;52.368;9.966;2023-02-26T01:34:14;2.63;;;1.20;;
13743;SDS011;6943;52.368;9.966;2023-02-26T01:36:55;2.30;;;1.27;;
13743;SDS011;6943;52.368;9.966;2023-02-26T01:44:54;5.87;;;1.40;;
13743;SDS011;6943;52.368;9.966;2023-02-26T01:50:21;3.87;;;1.40;;
13743;SDS011;6943;52.368;9.966;2023-02-26T01:53:38;3.17;;;1.33;;
13743;SDS011;6943;52.368;9.966;2023-02-26T01:55:48;2.67;;;1.30;;
13743;SDS011;6943;52.368;9.966;2023-02-26T01:58:17;3.50;;;1.50;;
13743;SDS011;6943;52.368;9.966;2023-02-26T02:00:45;1.63;;;1.03;;
13743;SDS011;6943;52.368;9.966;2023-02-26T02:03:10;2.37;;;1.40;;
13743;SDS011;6943;52.368;9.966;2023-02-26T02:05:41;3.00;;;1.20;;
13743;SDS011;6943;52.368;9.966;2023-02-26T02:08:11;3.80;;;1.17;;
13743;SDS011;6943;52.368;9.966;2023-02-26T02:10:39;5.30;;;2.23;;
13743;SDS011;6943;52.368;9.966;2023-02-26T02:15:54;2.53;;;1.10;;
13743;SDS011;6943;52.368;9.966;2023-02-26T02:24:06;5.57;;;1.30;;
13743;SDS011;6943;52.368;9.966;2023-02-26T02:27:03;2.20;;;1.50;;
13743;SDS011;6943;52.368;9.966;2023-02-26T02:32:15;2.30;;;1.17;;
13743;SDS011;6943;52.368;9.966;2023-02-26T02:34:50;2.37;;;1.20;;
13743;SDS011;6943;52.368;9.966;2023-02-26T02:37:45;2.30;;;1.10;;
13743;SDS011;6943;52.368;9.966;2023-02-26T02:40:21;3.03;;;1.27;;
13743;SDS011;6943;52.368;9.966;2023-02-26T02:43:03;3.03;;;1.30;;
13743;SDS011;6943;52.368;9.966;2023-02-26T02:45:43;1.83;;;1.10;;
13743;SDS011;6943;52.368;9.966;2023-02-26T02:48:30;2.03;;;1.40;;
13743;SDS011;6943;52.368;9.966;2023-02-26T02:56:16;4.67;;;1.53;;
13743;SDS011;6943;52.368;9.966;2023-02-26T02:58:50;2.53;;;1.20;;
13743;SDS011;6943;52.368;9.966;2023-02-26T03:01:27;2.33;;;1.10;;
13743;SDS011;6943;52.368;9.966;2023-02-26T03:03:56;4.47;;;1.17;;
13743;SDS011;6943;52.368;9.966;2023-02-26T03:06:23;4.20;;;1.27;;
13743;SDS011;6943;52.368;9.966;2023-02-26T03:08:48;3.00;;;1.23;;
13743;SDS011;6943;52.368;9.966;2023-02-26T03:11:16;2.27;;;1.47;;
13743;SDS011;6943;52.368;9.966;2023-02-26T03:13:41;2.70;;;1.40;;
13743;SDS011;6943;52.368;9.966;2023-02-26T03:19:04;2.93;;;1.23;;
13743;SDS011;6943;52.368;9.966;2023-02-26T03:21:57;1.93;;;1.03;;
13743;SDS011;6943;52.368;9.966;2023-02-26T03:27:38;1.40;;;1.07;;
13743;SDS011;6943;52.368;9.966;2023-02-26T03:30:21;2.53;;;0.93;;
13743;SDS011;6943;52.368;9.966;2023-02-26T03:38:35;6.70;;;1.50;;
13743;SDS011;6943;52.368;9.966;2023-02-26T03:41:12;1.73;;;1.00;;
13743;SDS011;6943;52.368;9.966;2023-02-26T03:43:47;3.83;;;1.00;;
13743;SDS011;6943;52.368;9.966;2023-02-26T03:46:21;3.77;;;1.00;;
13743;SDS011;6943;52.368;9.966;2023-02-26T03:48:58;2.43;;;1.00;;
13743;SDS011;6943;52.368;9.966;2023-02-26T03:51:29;2.13;;;0.90;;
13743;SDS011;6943;52.368;9.966;2023-02-26T03:53:57;1.73;;;0.97;;
13743;SDS011;6943;52.368;9.966;2023-02-26T03:56:31;3.00;;;0.90;;
13743;SDS011;6943;52.368;9.966;2023-02-26T03:59:05;1.90;;;1.00;;
13743;SDS011;6943;52.368;9.966;2023-02-26T04:01:34;3.03;;;1.10;;
13743;SDS011;6943;52.368;9.966;2023-02-26T04:04:06;1.33;;;0.97;;
13743;SDS011;6943;52.368;9.966;2023-02-26T04:06:36;1.97;;;1.00;;
13743;SDS011;6943;52.368;9.966;2023-02-26T04:09:02;2.37;;;1.10;;
13743;SDS011;6943;52.368;9.966;2023-02-26T04:11:28;1.13;;;1.00;;
13743;SDS011;6943;52.368;9.966;2023-02-26T04:13:55;2.97;;;1.43;;
13743;SDS011;6943;52.368;9.966;2023-02-26T04:16:21;2.23;;;1.10;;
13743;SDS011;6943;52.368;9.966;2023-02-26T04:18:47;1.90;;;1.10;;
13743;SDS011;6943;52.368;9.966;2023-02-26T04:21:13;2.67;;;1.20;;
13743;SDS011;6943;52.368;9.966;2023-02-26T04:23:42;6.33;;;1.50;;
13743;SDS011;6943;52.368;9.966;2023-02-26T04:26:08;2.83;;;1.50;;
13743;SDS011;6943;52.368;9.966;2023-02-26T04:28:33;3.93;;;1.10;;
13743;SDS011;6943;52.368;9.966;2023-02-26T04:31:01;3.43;;;1.43;;
13743;SDS011;6943;52.368;9.966;2023-02-26T04:33:28;3.43;;;0.90;;
13743;SDS011;6943;52.368;9.966;2023-02-26T04:35:55;2.60;;;1.20;;
13743;SDS011;6943;52.368;9.966;2023-02-26T04:38:21;1.57;;;1.10;;
13743;SDS011;6943;52.368;9.966;2023-02-26T04:40:47;3.27;;;1.20;;
13743;SDS011;6943;52.368;9.966;2023-02-26T04:43:13;4.23;;;1.40;;
13743;SDS011;6943;52.368;9.966;2023-02-26T04:45:39;1.73;;;1.13;;
13743;SDS011;6943;52.368;9.966;2023-02-26T04:48:04;3.20;;;1.20;;
13743;SDS011;6943;52.368;9.966;2023-02-26T04:50:30;1.70;;;1.10;;
13743;SDS011;6943;52.368;9.966;2023-02-26T04:52:55;2.90;;;1.17;;
13743;SDS011;6943;52.368;9.966;2023-02-26T04:55:21;2.97;;;1.20;;
13743;SDS011;6943;52.368;9.966;2023-02-26T04:57:47;4.20;;;1.10;;
13743;SDS011;6943;52.368;9.966;2023-02-26T05:00:12;2.67;;;1.20;;
13743;SDS011;6943;52.368;9.966;2023-02-26T05:02:39;1.53;;;1.20;;
13743;SDS011;6943;52.368;9.966;2023-02-26T05:05:04;5.70;;;1.20;;
13743;SDS011;6943;52.368;9.966;2023-02-26T05:07:31;2.17;;;1.00;;
13743;SDS011;6943;52.368;9.966;2023-02-26T05:09:56;3.23;;;1.33;;
13743;SDS011;6943;52.368;9.966;2023-02-26T05:12:22;1.17;;;0.93;;
13743;SDS011;6943;52.368;9.966;2023-02-26T05:14:48;2.37;;;1.10;;
13743;SDS011;6943;52.368;9.966;2023-02-26T05:17:13;4.03;;;1.43;;
13743;SDS011;6943;52.368;9.966;2023-02-26T05:19:39;2.60;;;0.83;;
13743;SDS011;6943;52.368;9.966;2023-02-26T05:22:04;4.27;;;2.00;;
13743;SDS011;6943;52.368;9.966;2023-02-26T05:24:30;1.60;;;0.93;;
13743;SDS011;6943;52.368;9.966;2023-02-26T05:26:55;1.30;;;0.87;;
13743;SDS011;6943;52.368;9.966;2023-02-26T05:29:21;1.83;;;0.90;;
13743;SDS011;6943;52.368;9.966;2023-02-26T05:31:46;1.87;;;0.97;;
13743;SDS011;6943;52.368;9.966;2023-02-26T05:34:12;3.07;;;1.27;;
13743;SDS011;6943;52.368;9.966;2023-02-26T05:36:37;4.17;;;1.17;;
13743;SDS011;6943;52.368;9.966;2023-02-26T05:39:03;4.90;;;1.20;;
13743;SDS011;6943;52.368;9.966;2023-02-26T05:41:28;1.40;;;1.20;;
13743;SDS011;6943;52.368;9.966;2023-02-26T05:43:54;4.63;;;1.10;;
13743;SDS011;6943;52.368;9.966;2023-02-26T05:46:19;3.83;;;1.20;;
13743;SDS011;6943;52.368;9.966;2023-02-26T05:48:45;4.20;;;1.30;;
13743;SDS011;6943;52.368;9.966;2023-02-26T05:51:10;2.50;;;0.73;;
13743;SDS011;6943;52.368;9.966;2023-02-26T05:53:36;2.23;;;1.30;;
13743;SDS011;6943;52.368;9.966;2023-02-26T05:56:01;2.50;;;0.90;;
13743;SDS011;6943;52.368;9.966;2023-02-26T05:58:27;2.47;;;0.90;;
13743;SDS011;6943;52.368;9.966;2023-02-26T06:00:52;2.50;;;1.13;;
13743;SDS011;6943;52.368;9.966;2023-02-26T06:03:18;1.80;;;1.20;;
13743;SDS011;6943;52.368;9.966;2023-02-26T06:05:43;1.17;;;0.90;;
13743;SDS011;6943;52.368;9.966;2023-02-26T06:08:09;1.70;;;1.10;;
13743;SDS011;6943;52.368;9.966;2023-02-26T06:10:36;2.27;;;1.00;;
13743;SDS011;6943;52.368;9.966;2023-02-26T06:13:02;2.70;;;1.10;;
13743;SDS011;6943;52.368;9.966;2023-02-26T06:15:27;2.20;;;0.73;;
13743;SDS011;6943;52.368;9.966;2023-02-26T06:17:53;1.57;;;1.00;;
13743;SDS011;6943;52.368;9.966;2023-02-26T06:20:18;1.57;;;0.77;;
13743;SDS011;6943;52.368;9.966;2023-02-26T06:22:44;1.87;;;1.00;;
13743;SDS011;6943;52.368;9.966;2023-02-26T06:25:09;1.70;;;1.10;;
13743;SDS011;6943;52.368;9.966;2023-02-26T06:27:35;1.80;;;0.97;;
13743;SDS011;6943;52.368;9.966;2023-02-26T06:30:00;3.13;;;1.13;;
13743;SDS011;6943;52.368;9.966;2023-02-26T06:32:26;1.93;;;1.00;;
13743;SDS011;6943;52.368;9.966;2023-02-26T06:34:51;1.40;;;1.00;;
13743;SDS011;6943;52.368;9.966;2023-02-26T06:37:17;1.80;;;1.03;;
13743;SDS011;6943;52.368;9.966;2023-02-26T06:39:42;1.10;;;1.00;;
13743;SDS011;6943;52.368;9.966;2023-02-26T06:42:08;3.20;;;1.00;;
13743;SDS011;6943;52.368;9.966;2023-02-26T06:44:33;2.03;;;1.20;;
13743;SDS011;6943;52.368;9.966;2023-02-26T06:46:59;1.50;;;1.20;;
13743;SDS011;6943;52.368;9.966;2023-02-26T06:49:24;1.53;;;0.90;;
13743;SDS011;6943;52.368;9.966;2023-02-26T06:51:50;2.03;;;1.00;;
13743;SDS011;6943;52.368;9.966;2023-02-26T06:54:15;2.57;;;1.00;;
13743;SDS011;6943;52.368;9.966;2023-02-26T06:56:41;2.77;;;0.90;;
13743;SDS011;6943;52.368;9.966;2023-02-26T06:59:06;3.13;;;0.87;;
13743;SDS011;6943;52.368;9.966;2023-02-26T07:01:32;3.53;;;1.43;;
13743;SDS011;6943;52.368;9.966;2023-02-26T07:03:57;2.37;;;0.90;;
13743;SDS011;6943;52.368;9.966;2023-02-26T07:06:23;1.33;;;0.70;;
13743;SDS011;6943;52.368;9.966;2023-02-26T07:08:48;2.83;;;1.27;;
13743;SDS011;6943;52.368;9.966;2023-02-26T07:11:14;3.57;;;1.23;;
13743;SDS011;6943;52.368;9.966;2023-02-26T07:13:39;1.90;;;1.00;;
13743;SDS011;6943;52.368;9.966;2023-02-26T07:16:05;1.17;;;0.93;;
13743;SDS011;6943;52.368;9.966;2023-02-26T07:18:32;1.80;;;0.70;;
13743;SDS011;6943;52.368;9.966;2023-02-26T07:20:58;2.43;;;0.73;;
13743;SDS011;6943;52.368;9.966;2023-02-26T07:23:24;2.23;;;0.83;;
13743;SDS011;6943;52.368;9.966;2023-02-26T07:25:49;3.17;;;1.00;;
13743;SDS011;6943;52.368;9.966;2023-02-26T07:28:15;1.23;;;1.00;;
13743;SDS011;6943;52.368;9.966;2023-02-26T07:30:40;1.23;;;1.13;;
13743;SDS011;6943;52.368;9.966;2023-02-26T07:33:06;2.87;;;1.20;;
13743;SDS011;6943;52.368;9.966;2023-02-26T07:35:32;2.90;;;0.90;;
13743;SDS011;6943;52.368;9.966;2023-02-26T07:37:58;3.07;;;1.20;;
13743;SDS011;6943;52.368;9.966;2023-02-26T07:40:23;3.33;;;1.00;;
13743;SDS011;6943;52.368;9.966;2023-02-26T07:42:49;2.17;;;1.00;;
13743;SDS011;6943;52.368;9.966;2023-02-26T07:45:14;1.80;;;0.80;;
13743;SDS011;6943;52.368;9.966;2023-02-26T07:47:46;4.17;;;1.10;;
13743;SDS011;6943;52.368;9.966;2023-02-26T07:50:12;2.27;;;1.07;;
13743;SDS011;6943;52.368;9.966;2023-02-26T07:52:38;1.77;;;0.90;;
13743;SDS011;6943;52.368;9.966;2023-02-26T07:55:04;1.97;;;0.90;;
13743;SDS011;6943;52.368;9.966;2023-02-26T07:57:29;1.70;;;1.20;;
13743;SDS011;6943;52.368;9.966;2023-02-26T07:59:55;3.20;;;1.33;;
13743;SDS011;6943;52.368;9.966;2023-02-26T08:02:20;2.80;;;1.27;;
13743;SDS011;6943;52.368;9.966;2023-02-26T08:04:47;1.20;;;0.90;;
13743;SDS011;6943;52.368;9.966;2023-02-26T08:07:13;1.83;;;0.80;;
13743;SDS011;6943;52.368;9.966;2023-02-26T08:09:38;3.43;;;1.03;;
13743;SDS011;6943;52.368;9.966;2023-02-26T08:12:04;2.00;;;1.10;;
13743;SDS011;6943;52.368;9.966;2023-02-26T08:14:29;2.13;;;1.20;;
13743;SDS011;6943;52.368;9.966;2023-02-26T08:16:55;2.07;;;0.90;;
13743;SDS011;6943;52.368;9.966;2023-02-26T08:19:20;2.33;;;1.10;;
13743;SDS011;6943;52.368;9.966;2023-02-26T08:21:46;2.27;;;1.30;;
13743;SDS011;6943;52.368;9.966;2023-02-26T08:24:11;3.47;;;1.00;;
13743;SDS011;6943;52.368;9.966;2023-02-26T08:26:37;2.53;;;0.90;;
13743;SDS011;6943;52.368;9.966;2023-02-26T08:29:03;2.40;;;0.93;;
13743;SDS011;6943;52.368;9.966;2023-02-26T08:31:29;6.10;;;1.30;;
13743;SDS011;6943;52.368;9.966;2023-02-26T08:33:56;2.73;;;1.40;;
13743;SDS011;6943;52.368;9.966;2023-02-26T08:36:21;1.57;;;1.00;;
13743;SDS011;6943;52.368;9.966;2023-02-26T08:38:48;4.07;;;1.33;;
13743;SDS011;6943;52.368;9.966;2023-02-26T08:41:13;3.23;;;0.97;;
13743;SDS011;6943;52.368;9.966;2023-02-26T08:43:39;2.27;;;1.20;;
13743;SDS011;6943;52.368;9.966;2023-02-26T08:46:04;1.93;;;1.30;;
13743;SDS011;6943;52.368;9.966;2023-02-26T08:48:30;2.53;;;1.00;;
13743;SDS011;6943;52.368;9.966;2023-02-26T08:50:56;2.00;;;1.10;;
13743;SDS011;6943;52.368;9.966;2023-02-26T08:53:22;1.47;;;1.20;;
13743;SDS011;6943;52.368;9.966;2023-02-26T08:55:48;6.50;;;1.30;;
13743;SDS011;6943;52.368;9.966;2023-02-26T08:58:15;2.17;;;1.20;;
13743;SDS011;6943;52.368;9.966;2023-02-26T09:00:41;2.50;;;1.00;;
13743;SDS011;6943;52.368;9.966;2023-02-26T09:03:06;4.27;;;1.60;;
13743;SDS011;6943;52.368;9.966;2023-02-26T09:05:32;2.37;;;1.20;;
13743;SDS011;6943;52.368;9.966;2023-02-26T09:07:57;3.17;;;1.43;;
13743;SDS011;6943;52.368;9.966;2023-02-26T09:10:23;2.30;;;1.33;;
13743;SDS011;6943;52.368;9.966;2023-02-26T09:12:48;2.23;;;1.03;;
13743;SDS011;6943;52.368;9.966;2023-02-26T09:15:14;2.10;;;1.10;;
13743;SDS011;6943;52.368;9.966;2023-02-26T09:17:40;2.57;;;0.80;;
13743;SDS011;6943;52.368;9.966;2023-02-26T09:20:05;1.37;;;1.17;;
13743;SDS011;6943;52.368;9.966;2023-02-26T09:22:33;3.10;;;1.40;;
13743;SDS011;6943;52.368;9.966;2023-02-26T09:24:58;2.47;;;1.30;;
13743;SDS011;6943;52.368;9.966;2023-02-26T09:27:24;4.03;;;1.87;;
13743;SDS011;6943;52.368;9.966;2023-02-26T09:29:50;2.13;;;1.30;;
13743;SDS011;6943;52.368;9.966;2023-02-26T09:32:15;1.90;;;0.90;;
13743;SDS011;6943;52.368;9.966;2023-02-26T09:34:40;2.17;;;1.20;;
13743;SDS011;6943;52.368;9.966;2023-02-26T09:37:07;2.67;;;1.03;;
13743;SDS011;6943;52.368;9.966;2023-02-26T09:39:34;1.37;;;0.80;;
13743;SDS011;6943;52.368;9.966;2023-02-26T09:42:04;2.83;;;1.10;;
13743;SDS011;6943;52.368;9.966;2023-02-26T09:44:40;2.30;;;1.00;;
13743;SDS011;6943;52.368;9.966;2023-02-26T09:47:16;1.40;;;0.80;;
13743;SDS011;6943;52.368;9.966;2023-02-26T09:52:53;3.03;;;1.40;;
13743;SDS011;6943;52.368;9.966;2023-02-26T09:55:38;1.93;;;0.80;;
13743;SDS011;6943;52.368;9.966;2023-02-26T09:58:20;2.47;;;0.90;;
13743;SDS011;6943;52.368;9.966;2023-02-26T10:06:37;3.17;;;1.43;;
13743;SDS011;6943;52.368;9.966;2023-02-26T10:09:46;2.50;;;1.17;;
13743;SDS011;6943;52.368;9.966;2023-02-26T10:12:35;1.50;;;0.80;;
13743;SDS011;6943;52.368;9.966;2023-02-26T10:17:34;2.43;;;0.97;;
13743;SDS011;6943;52.368;9.966;2023-02-26T10:20:18;1.23;;;0.60;;
13743;SDS011;6943;52.368;9.966;2023-02-26T10:25:43;2.90;;;0.70;;
13743;SDS011;6943;52.368;9.966;2023-02-26T10:30:43;1.63;;;0.90;;
13743;SDS011;6943;52.368;9.966;2023-02-26T10:33:20;2.10;;;0.90;;
13743;SDS011;6943;52.368;9.966;2023-02-26T10:35:58;1.97;;;1.00;;
13743;SDS011;6943;52.368;9.966;2023-02-26T10:38:32;3.73;;;0.93;;
13743;SDS011;6943;52.368;9.966;2023-02-26T10:41:04;1.47;;;0.73;;
13743;SDS011;6943;52.368;9.966;2023-02-26T10:43:39;1.37;;;0.70;;
13743;SDS011;6943;52.368;9.966;2023-02-26T10:46:26;1.47;;;0.83;;
13743;SDS011;6943;52.368;9.966;2023-02-26T10:49:20;2.30;;;0.60;;
13743;SDS011;6943;52.368;9.966;2023-02-26T10:52:14;1.37;;;1.00;;
13743;SDS011;6943;52.368;9.966;2023-02-26T10:54:45;1.77;;;0.90;;
13743;SDS011;6943;52.368;9.966;2023-02-26T10:57:20;2.33;;;1.07;;
13743;SDS011;6943;52.368;9.966;2023-02-26T10:59:50;1.90;;;1.40;;
13743;SDS011;6943;52.368;9.966;2023-02-26T11:02:28;2.57;;;1.50;;
13743;SDS011;6943;52.368;9.966;2023-02-26T11:04:56;2.07;;;1.17;;
13743;SDS011;6943;52.368;9.966;2023-02-26T11:07:22;2.60;;;0.87;;
13743;SDS011;6943;52.368;9.966;2023-02-26T11:09:50;2.17;;;0.60;;
13743;SDS011;6943;52.368;9.966;2023-02-26T11:12:16;1.00;;;0.80;;
13743;SDS011;6943;52.368;9.966;2023-02-26T11:14:43;1.53;;;0.77;;
13743;SDS011;6943;52.368;9.966;2023-02-26T11:17:25;3.17;;;1.43;;
13743;SDS011;6943;52.368;9.966;2023-02-26T11:20:04;1.23;;;0.90;;
13743;SDS011;6943;52.368;9.966;2023-02-26T11:22:45;0.97;;;0.70;;
13743;SDS011;6943;52.368;9.966;2023-02-26T11:25:13;2.03;;;0.90;;
13743;SDS011;6943;52.368;9.966;2023-02-26T11:27:42;1.83;;;0.77;;
13743;SDS011;6943;52.368;9.966;2023-02-26T11:30:19;0.90;;;0.90;;
13743;SDS011;6943;52.368;9.966;2023-02-26T11:32:49;1.20;;;1.10;;
13743;SDS011;6943;52.368;9.966;2023-02-26T11:35:16;0.80;;;0.60;;
13743;SDS011;6943;52.368;9.966;2023-02-26T11:37:47;1.63;;;0.70;;
13743;SDS011;6943;52.368;9.966;2023-02-26T11:40:18;1.47;;;0.70;;
13743;SDS011;6943;52.368;9.966;2023-02-26T11:42:55;0.63;;;0.60;;
13743;SDS011;6943;52.368;9.966;2023-02-26T11:45:24;1.07;;;0.50;;
13743;SDS011;6943;52.368;9.966;2023-02-26T11:47:59;1.93;;;0.80;;
13743;SDS011;6943;52.368;9.966;2023-02-26T11:50:31;1.17;;;0.50;;
13743;SDS011;6943;52.368;9.966;2023-02-26T11:53:04;2.47;;;0.60;;
13743;SDS011;6943;52.368;9.966;2023-02-26T11:55:37;3.50;;;1.10;;
13743;SDS011;6943;52.368;9.966;2023-02-26T11:58:19;1.87;;;1.17;;
13743;SDS011;6943;52.368;9.966;2023-02-26T12:00:48;0.93;;;0.50;;
13743;SDS011;6943;52.368;9.966;2023-02-26T12:03:20;1.10;;;0.80;;
13743;SDS011;6943;52.368;9.966;2023-02-26T12:05:48;1.47;;;0.90;;
13743;SDS011;6943;52.368;9.966;2023-02-26T12:14:09;3.87;;;1.63;;
13743;SDS011;6943;52.368;9.966;2023-02-26T12:16:39;4.70;;;1.53;;
13743;SDS011;6943;52.368;9.966;2023-02-26T12:19:39;0.97;;;0.53;;
13743;SDS011;6943;52.368;9.966;2023-02-26T12:22:38;1.33;;;0.90;;
13743;SDS011;6943;52.368;9.966;2023-02-26T12:28:01;1.17;;;0.70;;
13743;SDS011;6943;52.368;9.966;2023-02-26T12:44:52;1.33;;;0.70;;
13743;SDS011;6943;52.368;9.966;2023-02-26T12:55:47;2.20;;;0.70;;
13743;SDS011;6943;52.368;9.966;2023-02-26T12:59:16;0.97;;;0.73;;
13743;SDS011;6943;52.368;9.966;2023-02-26T13:01:42;1.83;;;1.00;;
13743;SDS011;6943;52.368;9.966;2023-02-26T13:04:39;3.43;;;1.10;;
13743;SDS011;6943;52.368;9.966;2023-02-26T13:10:19;2.27;;;0.73;;
13743;SDS011;6943;52.368;9.966;2023-02-26T13:13:02;2.23;;;1.40;;
13743;SDS011;6943;52.368;9.966;2023-02-26T13:15:56;2.80;;;1.23;;
13743;SDS011;6943;52.368;9.966;2023-02-26T13:24:01;2.93;;;0.97;;
13743;SDS011;6943;52.368;9.966;2023-02-26T13:26:29;2.20;;;1.00;;
13743;SDS011;6943;52.368;9.966;2023-02-26T13:29:31;2.17;;;0.70;;
13743;SDS011;6943;52.368;9.966;2023-02-26T13:31:52;0.70;;;0.60;;
13743;SDS011;6943;52.368;9.966;2023-02-26T13:37:30;1.03;;;0.80;;
13743;SDS011;6943;52.368;9.966;2023-02-26T13:40:13;1.33;;;0.60;;
13743;SDS011;6943;52.368;9.966;2023-02-26T13:48:09;0.80;;;0.80;;
13743;SDS011;6943;52.368;9.966;2023-02-26T13:56:06;2.37;;;0.83;;
13743;SDS011;6943;52.368;9.966;2023-02-26T13:58:39;1.73;;;0.80;;
13743;SDS011;6943;52.368;9.966;2023-02-26T14:01:09;1.80;;;0.90;;
13743;SDS011;6943;52.368;9.966;2023-02-26T14:03:43;4.03;;;0.90;;
13743;SDS011;6943;52.368;9.966;2023-02-26T14:08:48;1.33;;;0.90;;
13743;SDS011;6943;52.368;9.966;2023-02-26T14:11:33;1.43;;;0.83;;
13743;SDS011;6943;52.368;9.966;2023-02-26T14:16:47;0.90;;;0.50;;
13743;SDS011;6943;52.368;9.966;2023-02-26T14:24:55;0.60;;;0.60;;
13743;SDS011;6943;52.368;9.966;2023-02-26T14:27:34;1.77;;;0.90;;
13743;SDS011;6943;52.368;9.966;2023-02-26T14:32:55;1.37;;;0.80;;
13743;SDS011;6943;52.368;9.966;2023-02-26T14:35:34;0.77;;;0.57;;
13743;SDS011;6943;52.368;9.966;2023-02-26T14:38:26;1.10;;;0.60;;
13743;SDS011;6943;52.368;9.966;2023-02-26T14:41:08;1.10;;;0.60;;
13743;SDS011;6943;52.368;9.966;2023-02-26T14:43:49;1.20;;;0.70;;
13743;SDS011;6943;52.368;9.966;2023-02-26T14:46:25;1.80;;;0.87;;
13743;SDS011;6943;52.368;9.966;2023-02-26T14:48:51;1.10;;;0.70;;
13743;SDS011;6943;52.368;9.966;2023-02-26T14:51:32;1.03;;;0.60;;
13743;SDS011;6943;52.368;9.966;2023-02-26T14:54:18;0.83;;;0.50;;
13743;SDS011;6943;52.368;9.966;2023-02-26T15:02:58;2.53;;;1.20;;
13743;SDS011;6943;52.368;9.966;2023-02-26T15:08:35;1.50;;;1.07;;
13743;SDS011;6943;52.368;9.966;2023-02-26T15:22:46;1.47;;;0.60;;
13743;SDS011;6943;52.368;9.966;2023-02-26T15:25:27;1.33;;;0.87;;
13743;SDS011;6943;52.368;9.966;2023-02-26T15:28:03;2.83;;;1.30;;
13743;SDS011;6943;52.368;9.966;2023-02-26T15:30:32;2.03;;;0.90;;
13743;SDS011;6943;52.368;9.966;2023-02-26T15:32:59;0.77;;;0.60;;
13743;SDS011;6943;52.368;9.966;2023-02-26T15:35:28;1.10;;;0.50;;
13743;SDS011;6943;52.368;9.966;2023-02-26T15:37:56;0.90;;;0.60;;
13743;SDS011;6943;52.368;9.966;2023-02-26T15:40:25;0.97;;;0.80;;
13743;SDS011;6943;52.368;9.966;2023-02-26T15:42:53;2.50;;;0.80;;
13743;SDS011;6943;52.368;9.966;2023-02-26T15:45:22;1.00;;;0.70;;
13743;SDS011;6943;52.368;9.966;2023-02-26T15:47:55;1.80;;;0.93;;
13743;SDS011;6943;52.368;9.966;2023-02-26T15:50:24;1.27;;;0.53;;
13743;SDS011;6943;52.368;9.966;2023-02-26T15:52:57;1.13;;;0.50;;
13743;SDS011;6943;52.368;9.966;2023-02-26T15:55:25;1.00;;;0.80;;
13743;SDS011;6943;52.368;9.966;2023-02-26T15:57:50;1.27;;;0.70;;
13743;SDS011;6943;52.368;9.966;2023-02-26T16:00:19;2.57;;;1.00;;
13743;SDS011;6943;52.368;9.966;2023-02-26T16:02:49;0.83;;;0.70;;
13743;SDS011;6943;52.368;9.966;2023-02-26T16:05:20;0.97;;;0.70;;
13743;SDS011;6943;52.368;9.966;2023-02-26T16:07:46;0.93;;;0.57;;
13743;SDS011;6943;52.368;9.966;2023-02-26T16:10:31;1.10;;;0.70;;
13743;SDS011;6943;52.368;9.966;2023-02-26T16:13:02;1.23;;;0.73;;
13743;SDS011;6943;52.368;9.966;2023-02-26T16:15:33;2.20;;;1.30;;
13743;SDS011;6943;52.368;9.966;2023-02-26T16:18:03;1.20;;;0.73;;
13743;SDS011;6943;52.368;9.966;2023-02-26T16:20:43;1.67;;;1.10;;
13743;SDS011;6943;52.368;9.966;2023-02-26T16:23:12;2.00;;;1.47;;
13743;SDS011;6943;52.368;9.966;2023-02-26T16:26:00;3.70;;;2.33;;
13743;SDS011;6943;52.368;9.966;2023-02-26T16:28:29;5.03;;;3.70;;
13743;SDS011;6943;52.368;9.966;2023-02-26T16:30:58;2.53;;;2.20;;
13743;SDS011;6943;52.368;9.966;2023-02-26T16:33:26;4.77;;;3.00;;
13743;SDS011;6943;52.368;9.966;2023-02-26T16:35:56;17.87;;;12.07;;
13743;SDS011;6943;52.368;9.966;2023-02-26T16:39:12;8.13;;;6.83;;
13743;SDS011;6943;52.368;9.966;2023-02-26T16:41:32;2.53;;;2.20;;
13743;SDS011;6943;52.368;9.966;2023-02-26T16:44:00;3.00;;;1.80;;
13743;SDS011;6943;52.368;9.966;2023-02-26T16:46:46;2.40;;;1.43;;
13743;SDS011;6943;52.368;9.966;2023-02-26T16:49:33;1.87;;;1.17;;
13743;SDS011;6943;52.368;9.966;2023-02-26T16:52:00;1.30;;;1.10;;
13743;SDS011;6943;52.368;9.966;2023-02-26T16:54:26;2.03;;;1.30;;
13743;SDS011;6943;52.368;9.966;2023-02-26T16:57:06;2.83;;;1.30;;
13743;SDS011;6943;52.368;9.966;2023-02-26T16:59:43;1.67;;;1.30;;
13743;SDS011;6943;52.368;9.966;2023-02-26T17:02:19;2.20;;;1.20;;
13743;SDS011;6943;52.368;9.966;2023-02-26T17:04:49;2.50;;;1.40;;
13743;SDS011;6943;52.368;9.966;2023-02-26T17:07:23;2.60;;;1.10;;
13743;SDS011;6943;52.368;9.966;2023-02-26T17:09:51;4.73;;;3.10;;
13743;SDS011;6943;52.368;9.966;2023-02-26T17:12:22;1.97;;;1.13;;
13743;SDS011;6943;52.368;9.966;2023-02-26T17:14:54;3.53;;;1.50;;
13743;SDS011;6943;52.368;9.966;2023-02-26T17:17:25;1.90;;;1.43;;
13743;SDS011;6943;52.368;9.966;2023-02-26T17:19:50;5.53;;;3.23;;
13743;SDS011;6943;52.368;9.966;2023-02-26T17:22:18;4.00;;;3.10;;
13743;SDS011;6943;52.368;9.966;2023-02-26T17:24:49;4.13;;;3.13;;
13743;SDS011;6943;52.368;9.966;2023-02-26T17:27:27;5.20;;;4.50;;
13743;SDS011;6943;52.368;9.966;2023-02-26T17:30:03;11.97;;;7.63;;
13743;SDS011;6943;52.368;9.966;2023-02-26T17:32:31;7.40;;;6.33;;
13743;SDS011;6943;52.368;9.966;2023-02-26T17:34:57;26.07;;;20.67;;
13743;SDS011;6943;52.368;9.966;2023-02-26T17:37:24;8.90;;;8.10;;
13743;SDS011;6943;52.368;9.966;2023-02-26T17:39:57;5.13;;;4.67;;
13743;SDS011;6943;52.368;9.966;2023-02-26T17:42:23;4.83;;;2.40;;
13743;SDS011;6943;52.368;9.966;2023-02-26T17:44:49;4.60;;;2.70;;
13743;SDS011;6943;52.368;9.966;2023-02-26T17:47:17;6.57;;;3.07;;
13743;SDS011;6943;52.368;9.966;2023-02-26T17:49:44;3.77;;;2.83;;
13743;SDS011;6943;52.368;9.966;2023-02-26T17:52:10;5.53;;;3.57;;